Overview Statistics Trail Chart Weather Telemetry Raw packets
 

This is the latest recevied weather packets stored in our database for station/object OK5TVR-5. If no packets are shown the sender has not sent any weather packets the latest 10 day(s).

<< 13 14 15 16 17 18 19 >>
Time Temp. Humidity Pressure Rain* Wind** Luminosity Snow
1788365240 22.22° C 45% 1012 hPa 0 mm - 33 W/m² -
1788364340 22.78° C 44% 1011.8 hPa 0 mm - 34 W/m² -
1788363440 23.33° C 42% 1011.8 hPa 0 mm - 55 W/m² -
1788362540 23.89° C 42% 1011.8 hPa 0 mm - 62 W/m² -
1788361640 22.78° C 42% 1012 hPa 0 mm - 45 W/m² -
1788360740 24.44° C 40% 1011.8 hPa 0 mm - 32 W/m² -
1788359840 25° C 37% 1011.7 hPa 0 mm - 99 W/m² -
1788358940 25° C 40% 1011.7 hPa 0 mm - 121 W/m² -
1788358040 24.44° C 39% 1012 hPa 0 mm - 39 W/m² -
1788357140 25° C 36% 1011.8 hPa 0 mm - 141 W/m² -
1788356240 25° C 37% 1011.8 hPa 0 mm - 154 W/m² -
1788355340 24.44° C 40% 1011.9 hPa 0 mm - 120 W/m² -
1788354440 25.56° C 37% 1011.9 hPa 0 mm - 175 W/m² -
1788353540 25° C 39% 1012.2 hPa 0 mm - 187 W/m² -
1788352641 25.56° C 39% 1012.4 hPa 0 mm - 237 W/m² -
1788351740 23.33° C 46% 1013 hPa 0 mm - 93 W/m² -
1788350840 22.78° C 47% 1013 hPa 0 mm - 117 W/m² -
1788349940 22.78° C 45% 1013.1 hPa 0 mm - 98 W/m² -
1788349040 22.78° C 43% 1013.1 hPa 0 mm - 79 W/m² -
1788348140 26.11° C 39% 1012.5 hPa 0 mm - 140 W/m² -
1788347240 23.89° C 45% 1013.1 hPa 0 mm - 140 W/m² -
1788346340 25.56° C 44% 1012.8 hPa 0 mm - 262 W/m² -
1788345440 24.44° C 46% 1013.4 hPa 0 mm - 70 W/m² -
1788344540 21.67° C 50% 1013.8 hPa 0 mm - 300 W/m² -
1788343640 22.22° C 50% 1014 hPa 0 mm - 251 W/m² -

* Rain latest hour (hover to see other rain measurements)
** Current wind speed in m/s (hover to see current wind gust speed)